Terminal Aerodrome Forecast
Issued by NWS Wilmington, OH

Current Version | Previous Version | Graphics & Text | Print | Product List | Glossary On
Versions: 1 2 3 4 5 6 7 8 9 10 11 12 13 14 15 16 17 18 19 20
000
FTUS41 KILN 261130
TAFILN
TAF
KILN 261130Z 2612/2712 24006KT P6SM VCSH SCT040 BKN080 BKN120
     FM261300 16007KT P6SM -SHRA OVC040
      TEMPO 2613/2617 4SM SHRA OVC025
     FM261700 17010G16KT P6SM -SHRA VCTS OVC022CB
      TEMPO 2617/2621 3SM SHRA OVC015
     FM262100 19009KT P6SM VCSH BKN080
     FM270600 23006KT P6SM BKN023=

USA.gov is the U.S. government's official web portal to all federal, state and local government web resources and services.